sensor_id;sensor_type;location;lat;lon;timestamp;pressure;altitude;pressure_sealevel;temperature;humidity
3254;BME280;1639;42.804;23.342;2023-09-19T00:01:06;72666.19;;;-148.52;74.60
3254;BME280;1639;42.804;23.342;2023-09-19T00:03:34;72682.75;;;-148.52;74.94
3254;BME280;1639;42.804;23.342;2023-09-19T00:06:03;72670.34;;;-148.52;74.75
3254;BME280;1639;42.804;23.342;2023-09-19T00:08:30;72674.47;;;-148.52;74.69
3254;BME280;1639;42.804;23.342;2023-09-19T00:10:55;72678.59;;;-148.52;74.87
3254;BME280;1639;42.804;23.342;2023-09-19T00:13:21;72682.75;;;-148.52;75.25
3254;BME280;1639;42.804;23.342;2023-09-19T00:15:48;72680.69;;;-148.52;75.17
3254;BME280;1639;42.804;23.342;2023-09-19T00:18:14;72701.34;;;-148.52;76.68
3254;BME280;1639;42.804;23.342;2023-09-19T00:20:41;72726.19;;;-148.52;78.20
3254;BME280;1639;42.804;23.342;2023-09-19T00:23:08;72724.09;;;-148.52;79.33
3254;BME280;1639;42.804;23.342;2023-09-19T00:25:34;72742.72;;;-148.52;81.63
3254;BME280;1639;42.804;23.342;2023-09-19T00:28:04;72751.00;;;-148.52;81.78
3254;BME280;1639;42.804;23.342;2023-09-19T00:30:30;72757.19;;;-148.52;82.06
3254;BME280;1639;42.804;23.342;2023-09-19T00:32:56;72757.19;;;-148.52;82.56
3254;BME280;1639;42.804;23.342;2023-09-19T00:35:22;72757.19;;;-148.52;82.90
3254;BME280;1639;42.804;23.342;2023-09-19T00:37:51;72748.91;;;-148.52;82.87
3254;BME280;1639;42.804;23.342;2023-09-19T00:40:16;72740.66;;;-148.52;82.72
3254;BME280;1639;42.804;23.342;2023-09-19T00:42:45;72724.09;;;-148.52;81.96
3254;BME280;1639;42.804;23.342;2023-09-19T00:45:12;72732.38;;;-148.52;82.24
3254;BME280;1639;42.804;23.342;2023-09-19T00:50:05;72753.06;;;-148.52;82.52
3254;BME280;1639;42.804;23.342;2023-09-19T00:52:34;72767.53;;;-148.52;83.77
3254;BME280;1639;42.804;23.342;2023-09-19T00:55:03;72753.06;;;-148.52;84.10
3254;BME280;1639;42.804;23.342;2023-09-19T00:57:29;72755.13;;;-148.52;84.21
3254;BME280;1639;42.804;23.342;2023-09-19T00:59:58;72757.19;;;-148.52;84.24
3254;BME280;1639;42.804;23.342;2023-09-19T01:02:25;72748.91;;;-148.52;84.16
3254;BME280;1639;42.804;23.342;2023-09-19T01:04:55;72757.19;;;-148.52;83.80
3254;BME280;1639;42.804;23.342;2023-09-19T01:07:20;72761.34;;;-148.52;84.30
3254;BME280;1639;42.804;23.342;2023-09-19T01:09:48;72773.75;;;-148.52;84.72
3254;BME280;1639;42.804;23.342;2023-09-19T01:12:15;72765.47;;;-148.52;85.21
3254;BME280;1639;42.804;23.342;2023-09-19T01:15:08;72757.19;;;-148.52;85.26
3254;BME280;1639;42.804;23.342;2023-09-19T01:29:39;72796.50;;;-148.52;86.01
3254;BME280;1639;42.804;23.342;2023-09-19T01:32:05;72798.56;;;-148.52;86.15
3254;BME280;1639;42.804;23.342;2023-09-19T01:37:19;72767.53;;;-148.52;85.29
3254;BME280;1639;42.804;23.342;2023-09-19T01:39:50;72763.41;;;-148.52;85.31
3254;BME280;1639;42.804;23.342;2023-09-19T01:51:42;72761.34;;;-148.52;83.79
3254;BME280;1639;42.804;23.342;2023-09-19T01:54:12;72767.53;;;-148.52;83.46
3254;BME280;1639;42.804;23.342;2023-09-19T01:56:53;72769.59;;;-148.52;83.70
3254;BME280;1639;42.804;23.342;2023-09-19T01:59:28;72769.59;;;-148.52;83.77
3254;BME280;1639;42.804;23.342;2023-09-19T02:01:57;72775.81;;;-148.52;83.90
3254;BME280;1639;42.804;23.342;2023-09-19T02:04:23;72786.16;;;-148.52;84.60
3254;BME280;1639;42.804;23.342;2023-09-19T02:06:48;72806.81;;;-148.52;85.51
3254;BME280;1639;42.804;23.342;2023-09-19T02:09:14;72796.50;;;-148.52;85.50
3254;BME280;1639;42.804;23.342;2023-09-19T02:11:40;72796.50;;;-148.52;85.43
3254;BME280;1639;42.804;23.342;2023-09-19T02:14:07;72788.22;;;-148.52;84.97
3254;BME280;1639;42.804;23.342;2023-09-19T02:16:34;72790.28;;;-148.52;84.94
3254;BME280;1639;42.804;23.342;2023-09-19T02:18:59;72777.88;;;-148.52;84.35
3254;BME280;1639;42.804;23.342;2023-09-19T02:21:25;72782.00;;;-148.52;84.69
3254;BME280;1639;42.804;23.342;2023-09-19T02:23:55;72790.28;;;-148.52;84.50
3254;BME280;1639;42.804;23.342;2023-09-19T02:26:20;72790.28;;;-148.52;84.90
3254;BME280;1639;42.804;23.342;2023-09-19T02:28:45;72810.97;;;-148.52;85.45
3254;BME280;1639;42.804;23.342;2023-09-19T02:31:11;72815.09;;;-148.52;85.71
3254;BME280;1639;42.804;23.342;2023-09-19T02:33:37;72802.69;;;-148.52;85.35
3254;BME280;1639;42.804;23.342;2023-09-19T02:36:02;72796.50;;;-148.52;84.88
3254;BME280;1639;42.804;23.342;2023-09-19T02:38:29;72786.16;;;-148.52;84.75
3254;BME280;1639;42.804;23.342;2023-09-19T02:40:55;72777.88;;;-148.52;84.71
3254;BME280;1639;42.804;23.342;2023-09-19T02:43:23;72784.09;;;-148.52;84.45
3254;BME280;1639;42.804;23.342;2023-09-19T02:45:50;72810.97;;;-148.52;85.62
3254;BME280;1639;42.804;23.342;2023-09-19T02:48:16;72827.50;;;-148.52;88.11
3254;BME280;1639;42.804;23.342;2023-09-19T02:50:42;72848.19;;;-148.52;89.71
3254;BME280;1639;42.804;23.342;2023-09-19T02:53:08;72854.41;;;-148.52;90.92
3254;BME280;1639;42.804;23.342;2023-09-19T02:55:33;72831.66;;;-148.52;90.28
3254;BME280;1639;42.804;23.342;2023-09-19T02:57:59;72827.50;;;-148.52;89.80
3254;BME280;1639;42.804;23.342;2023-09-19T03:00:26;72827.50;;;-148.52;89.00
3254;BME280;1639;42.804;23.342;2023-09-19T03:02:54;72856.47;;;-148.52;89.41
3254;BME280;1639;42.804;23.342;2023-09-19T03:05:21;72858.53;;;-148.52;90.15
3254;BME280;1639;42.804;23.342;2023-09-19T03:07:47;72864.75;;;-148.52;90.77
3254;BME280;1639;42.804;23.342;2023-09-19T03:10:19;72846.13;;;-148.52;90.44
3254;BME280;1639;42.804;23.342;2023-09-19T03:12:48;72850.25;;;-148.52;90.53
3254;BME280;1639;42.804;23.342;2023-09-19T03:15:14;72846.13;;;-148.52;90.94
3254;BME280;1639;42.804;23.342;2023-09-19T03:17:47;72827.50;;;-148.52;90.54
3254;BME280;1639;42.804;23.342;2023-09-19T03:20:13;72825.44;;;-148.52;90.59
3254;BME280;1639;42.804;23.342;2023-09-19T03:22:39;72823.38;;;-148.52;90.24
3254;BME280;1639;42.804;23.342;2023-09-19T03:25:06;72823.38;;;-148.52;89.52
3254;BME280;1639;42.804;23.342;2023-09-19T03:27:34;72823.38;;;-148.52;89.13
3254;BME280;1639;42.804;23.342;2023-09-19T03:30:00;72831.66;;;-148.52;88.50
3254;BME280;1639;42.804;23.342;2023-09-19T03:32:25;72831.66;;;-148.52;88.45
3254;BME280;1639;42.804;23.342;2023-09-19T03:34:50;72846.13;;;-148.52;88.44
3254;BME280;1639;42.804;23.342;2023-09-19T03:37:16;72860.59;;;-148.52;88.93
3254;BME280;1639;42.804;23.342;2023-09-19T03:39:42;72866.81;;;-148.52;89.26
3254;BME280;1639;42.804;23.342;2023-09-19T03:42:07;72864.75;;;-148.52;89.48
3254;BME280;1639;42.804;23.342;2023-09-19T03:44:33;72862.66;;;-148.52;89.16
3254;BME280;1639;42.804;23.342;2023-09-19T03:46:58;72858.53;;;-148.52;88.84
3254;BME280;1639;42.804;23.342;2023-09-19T03:49:24;72856.47;;;-148.52;88.51
3254;BME280;1639;42.804;23.342;2023-09-19T03:51:49;72866.81;;;-148.52;88.68
3254;BME280;1639;42.804;23.342;2023-09-19T03:54:15;72866.81;;;-148.52;88.60
3254;BME280;1639;42.804;23.342;2023-09-19T03:56:42;72868.88;;;-148.52;88.84
3254;BME280;1639;42.804;23.342;2023-09-19T03:59:08;72873.00;;;-148.52;89.26
3254;BME280;1639;42.804;23.342;2023-09-19T04:01:34;72875.06;;;-148.52;89.53
3254;BME280;1639;42.804;23.342;2023-09-19T04:04:00;72866.81;;;-148.52;89.32
3254;BME280;1639;42.804;23.342;2023-09-19T04:06:36;72868.88;;;-148.52;88.87
3254;BME280;1639;42.804;23.342;2023-09-19T04:09:03;72891.63;;;-148.52;89.12
3254;BME280;1639;42.804;23.342;2023-09-19T04:11:29;72885.41;;;-148.52;89.12
3254;BME280;1639;42.804;23.342;2023-09-19T04:13:55;72897.81;;;-148.52;89.06
3254;BME280;1639;42.804;23.342;2023-09-19T04:16:21;72933.00;;;-148.52;91.10
3254;BME280;1639;42.804;23.342;2023-09-19T04:18:46;72922.66;;;-148.52;91.20
3254;BME280;1639;42.804;23.342;2023-09-19T04:21:12;72918.50;;;-148.52;91.26
3254;BME280;1639;42.804;23.342;2023-09-19T04:23:37;72937.13;;;-148.52;93.31
3254;BME280;1639;42.804;23.342;2023-09-19T04:26:02;72935.06;;;-148.52;93.91
3254;BME280;1639;42.804;23.342;2023-09-19T04:28:30;72945.41;;;-148.52;95.95
3254;BME280;1639;42.804;23.342;2023-09-19T04:30:56;72937.13;;;-148.52;95.92
3254;BME280;1639;42.804;23.342;2023-09-19T04:33:21;72930.91;;;-148.52;96.29
3254;BME280;1639;42.804;23.342;2023-09-19T04:35:49;72914.38;;;-148.52;95.80
3254;BME280;1639;42.804;23.342;2023-09-19T04:38:14;72908.16;;;-148.52;95.65
3254;BME280;1639;42.804;23.342;2023-09-19T04:40:41;72897.81;;;-148.52;95.46
3254;BME280;1639;42.804;23.342;2023-09-19T04:43:06;72883.34;;;-148.52;94.75
3254;BME280;1639;42.804;23.342;2023-09-19T04:45:32;72879.22;;;-148.52;94.84
3254;BME280;1639;42.804;23.342;2023-09-19T04:47:58;72870.94;;;-148.52;94.45
3254;BME280;1639;42.804;23.342;2023-09-19T04:50:23;72858.53;;;-148.52;94.06
3254;BME280;1639;42.804;23.342;2023-09-19T04:52:53;72835.78;;;-148.52;93.87
3254;BME280;1639;42.804;23.342;2023-09-19T04:55:19;72827.50;;;-148.52;93.18
3254;BME280;1639;42.804;23.342;2023-09-19T04:57:48;72842.00;;;-148.52;92.98
3254;BME280;1639;42.804;23.342;2023-09-19T05:00:16;72823.38;;;-148.52;92.08
3254;BME280;1639;42.804;23.342;2023-09-19T05:02:42;72808.91;;;-148.52;91.50
3254;BME280;1639;42.804;23.342;2023-09-19T05:05:09;72800.63;;;-148.52;90.89
3254;BME280;1639;42.804;23.342;2023-09-19T05:07:40;72794.41;;;-148.52;89.75
3254;BME280;1639;42.804;23.342;2023-09-19T05:10:06;72786.16;;;-148.52;89.58
3254;BME280;1639;42.804;23.342;2023-09-19T05:12:35;72796.50;;;-148.52;90.59
3254;BME280;1639;42.804;23.342;2023-09-19T05:15:04;72777.88;;;-148.52;89.69
3254;BME280;1639;42.804;23.342;2023-09-19T05:17:32;72782.00;;;-148.52;89.82
3254;BME280;1639;42.804;23.342;2023-09-19T05:19:58;72769.59;;;-148.52;89.25
3254;BME280;1639;42.804;23.342;2023-09-19T05:22:26;72761.34;;;-148.52;90.10
3254;BME280;1639;42.804;23.342;2023-09-19T05:24:52;72757.19;;;-148.52;88.89
3254;BME280;1639;42.804;23.342;2023-09-19T05:27:18;72738.59;;;-148.52;87.26
3254;BME280;1639;42.804;23.342;2023-09-19T05:29:44;72709.63;;;-148.52;86.99
3254;BME280;1639;42.804;23.342;2023-09-19T05:32:10;72682.75;;;-148.52;87.09
3254;BME280;1639;42.804;23.342;2023-09-19T05:34:36;72674.47;;;-148.52;82.93
3254;BME280;1639;42.804;23.342;2023-09-19T05:37:01;72651.72;;;-148.52;82.46
3254;BME280;1639;42.804;23.342;2023-09-19T05:39:27;72633.13;;;-148.52;82.33
3254;BME280;1639;42.804;23.342;2023-09-19T05:41:52;72626.91;;;-148.52;81.69
3254;BME280;1639;42.804;23.342;2023-09-19T05:44:17;72631.03;;;-148.52;81.92
3254;BME280;1639;42.804;23.342;2023-09-19T05:46:43;72608.28;;;-148.52;81.19
3254;BME280;1639;42.804;23.342;2023-09-19T05:49:10;72600.03;;;-148.52;80.37
3254;BME280;1639;42.804;23.342;2023-09-19T05:51:35;72587.63;;;-148.52;78.92
3254;BME280;1639;42.804;23.342;2023-09-19T05:54:01;72579.34;;;-148.52;79.28
3254;BME280;1639;42.804;23.342;2023-09-19T05:56:26;72573.13;;;-148.52;78.54
3254;BME280;1639;42.804;23.342;2023-09-19T05:58:52;72554.53;;;-148.52;78.83
3254;BME280;1639;42.804;23.342;2023-09-19T06:01:18;72537.97;;;-148.52;78.34
3254;BME280;1639;42.804;23.342;2023-09-19T06:03:44;72521.44;;;-148.52;77.68
3254;BME280;1639;42.804;23.342;2023-09-19T06:06:09;72521.44;;;-148.52;76.39
3254;BME280;1639;42.804;23.342;2023-09-19T06:08:35;72509.03;;;-148.52;76.96
3254;BME280;1639;42.804;23.342;2023-09-19T06:11:00;72521.44;;;-148.52;76.46
3254;BME280;1639;42.804;23.342;2023-09-19T06:13:28;72513.16;;;-148.52;75.98
3254;BME280;1639;42.804;23.342;2023-09-19T06:15:55;72500.75;;;-148.52;75.19
3254;BME280;1639;42.804;23.342;2023-09-19T06:18:21;72488.34;;;-148.52;74.87
3254;BME280;1639;42.804;23.342;2023-09-19T06:20:48;72521.44;;;-148.52;75.10
3254;BME280;1639;42.804;23.342;2023-09-19T06:23:16;72502.81;;;-148.52;75.59
3254;BME280;1639;42.804;23.342;2023-09-19T06:25:42;72484.22;;;-148.52;75.01
3254;BME280;1639;42.804;23.342;2023-09-19T06:28:11;72471.81;;;-148.52;74.64
3254;BME280;1639;42.804;23.342;2023-09-19T06:30:42;72473.88;;;-148.52;75.04
3254;BME280;1639;42.804;23.342;2023-09-19T06:33:07;72459.41;;;-148.52;74.33
3254;BME280;1639;42.804;23.342;2023-09-19T06:35:33;72436.66;;;-148.52;73.74
3254;BME280;1639;42.804;23.342;2023-09-19T06:38:02;72418.03;;;-148.52;73.42
3254;BME280;1639;42.804;23.342;2023-09-19T06:40:28;72407.69;;;-148.52;70.79
3254;BME280;1639;42.804;23.342;2023-09-19T06:42:55;72407.69;;;-148.52;70.59
3254;BME280;1639;42.804;23.342;2023-09-19T06:45:21;72399.44;;;-148.52;71.46
3254;BME280;1639;42.804;23.342;2023-09-19T06:47:50;72401.50;;;-148.52;69.79
3254;BME280;1639;42.804;23.342;2023-09-19T06:50:20;72382.88;;;-148.52;69.21
3254;BME280;1639;42.804;23.342;2023-09-19T06:52:48;72364.28;;;-148.52;68.71
3254;BME280;1639;42.804;23.342;2023-09-19T06:55:18;72360.13;;;-148.52;68.47
3254;BME280;1639;42.804;23.342;2023-09-19T06:57:45;72360.13;;;-148.52;68.21
3254;BME280;1639;42.804;23.342;2023-09-19T07:00:12;72341.53;;;-148.52;68.16
3254;BME280;1639;42.804;23.342;2023-09-19T07:02:58;72329.13;;;-148.52;68.85
3254;BME280;1639;42.804;23.342;2023-09-19T07:05:26;72318.78;;;-148.52;66.17
3254;BME280;1639;42.804;23.342;2023-09-19T07:07:52;72296.03;;;-148.52;65.46
3254;BME280;1639;42.804;23.342;2023-09-19T07:10:19;72283.63;;;-148.52;63.84
3254;BME280;1639;42.804;23.342;2023-09-19T07:12:45;72283.63;;;-148.52;64.27
3254;BME280;1639;42.804;23.342;2023-09-19T07:15:10;72273.28;;;-148.52;64.11
3254;BME280;1639;42.804;23.342;2023-09-19T07:17:35;72298.09;;;-148.52;64.82
3254;BME280;1639;42.804;23.342;2023-09-19T07:20:02;72310.50;;;-148.52;65.06
3254;BME280;1639;42.804;23.342;2023-09-19T07:22:32;72289.84;;;-148.52;62.44
3254;BME280;1639;42.804;23.342;2023-09-19T07:24:58;72277.44;;;-148.52;62.91
3254;BME280;1639;42.804;23.342;2023-09-19T07:27:23;72296.03;;;-148.52;62.84
3254;BME280;1639;42.804;23.342;2023-09-19T07:29:48;72289.84;;;-148.52;63.83
3254;BME280;1639;42.804;23.342;2023-09-19T07:32:14;72277.44;;;-148.52;62.46
3254;BME280;1639;42.804;23.342;2023-09-19T07:34:42;72265.03;;;-148.52;58.81
3254;BME280;1639;42.804;23.342;2023-09-19T07:37:09;72258.81;;;-148.52;58.72
3254;BME280;1639;42.804;23.342;2023-09-19T07:39:35;72248.47;;;-148.52;59.67
3254;BME280;1639;42.804;23.342;2023-09-19T07:42:00;72256.75;;;-148.52;56.93
3254;BME280;1639;42.804;23.342;2023-09-19T07:44:26;72236.06;;;-148.52;57.27
3254;BME280;1639;42.804;23.342;2023-09-19T07:46:52;72217.47;;;-148.52;56.93
3254;BME280;1639;42.804;23.342;2023-09-19T07:49:18;72194.72;;;-148.52;56.05
3254;BME280;1639;42.804;23.342;2023-09-19T07:55:06;72167.84;;;-148.52;54.74
3254;BME280;1639;42.804;23.342;2023-09-19T07:57:37;72161.63;;;-148.52;54.85
3254;BME280;1639;42.804;23.342;2023-09-19T08:00:20;72149.22;;;-148.52;54.06
3254;BME280;1639;42.804;23.342;2023-09-19T08:02:46;72120.28;;;-148.52;53.75
3254;BME280;1639;42.804;23.342;2023-09-19T08:05:13;72093.41;;;-148.52;53.58
3254;BME280;1639;42.804;23.342;2023-09-19T08:07:43;72081.00;;;-148.52;52.89
3254;BME280;1639;42.804;23.342;2023-09-19T08:10:09;72070.66;;;-148.52;51.98
3254;BME280;1639;42.804;23.342;2023-09-19T08:12:48;72089.25;;;-148.52;52.72
3254;BME280;1639;42.804;23.342;2023-09-19T08:15:15;72072.72;;;-148.52;53.36
3254;BME280;1639;42.804;23.342;2023-09-19T08:17:41;72087.19;;;-148.52;52.76
3254;BME280;1639;42.804;23.342;2023-09-19T08:20:07;72085.13;;;-148.52;54.13
3254;BME280;1639;42.804;23.342;2023-09-19T08:22:40;72099.59;;;-148.52;52.98
3254;BME280;1639;42.804;23.342;2023-09-19T08:25:06;72107.88;;;-148.52;53.46
3254;BME280;1639;42.804;23.342;2023-09-19T08:27:32;72097.53;;;-148.52;53.40
3254;BME280;1639;42.804;23.342;2023-09-19T08:29:57;72091.31;;;-148.52;53.20
3254;BME280;1639;42.804;23.342;2023-09-19T08:32:22;72091.31;;;-148.52;54.15
3254;BME280;1639;42.804;23.342;2023-09-19T08:34:50;72099.59;;;-148.52;53.87
3254;BME280;1639;42.804;23.342;2023-09-19T08:37:16;72107.88;;;-148.52;53.76
3254;BME280;1639;42.804;23.342;2023-09-19T08:39:43;72103.72;;;-148.52;53.99
3254;BME280;1639;42.804;23.342;2023-09-19T08:42:09;72130.63;;;-148.52;54.48
3254;BME280;1639;42.804;23.342;2023-09-19T08:44:37;72120.28;;;-148.52;54.28
3254;BME280;1639;42.804;23.342;2023-09-19T08:47:09;72103.72;;;-148.52;52.97
3254;BME280;1639;42.804;23.342;2023-09-19T08:49:52;72105.81;;;-148.52;53.49
3254;BME280;1639;42.804;23.342;2023-09-19T08:52:22;72070.66;;;-148.52;53.71
3254;BME280;1639;42.804;23.342;2023-09-19T08:54:51;72056.16;;;-148.52;54.62
3254;BME280;1639;42.804;23.342;2023-09-19T08:57:17;72006.56;;;-148.52;54.02
3254;BME280;1639;42.804;23.342;2023-09-19T08:59:47;71952.78;;;-148.52;52.54
3254;BME280;1639;42.804;23.342;2023-09-19T09:02:14;71913.50;;;-148.52;52.16
3254;BME280;1639;42.804;23.342;2023-09-19T09:04:41;71911.44;;;-148.52;49.58
3254;BME280;1639;42.804;23.342;2023-09-19T09:07:11;71888.69;;;-148.52;50.88
3254;BME280;1639;42.804;23.342;2023-09-19T09:09:38;71888.69;;;-148.52;50.07
3254;BME280;1639;42.804;23.342;2023-09-19T09:12:09;71863.88;;;-148.52;50.16
3254;BME280;1639;42.804;23.342;2023-09-19T09:14:35;71847.34;;;-148.52;48.77
3254;BME280;1639;42.804;23.342;2023-09-19T09:17:01;71808.06;;;-148.52;48.49
3254;BME280;1639;42.804;23.342;2023-09-19T09:19:27;71820.47;;;-148.52;48.07
3254;BME280;1639;42.804;23.342;2023-09-19T09:21:53;71834.94;;;-148.52;48.50
3254;BME280;1639;42.804;23.342;2023-09-19T09:24:29;71832.88;;;-148.52;48.55
3254;BME280;1639;42.804;23.342;2023-09-19T09:26:58;71847.34;;;-148.52;48.78
3254;BME280;1639;42.804;23.342;2023-09-19T09:32:24;71868.00;;;-148.52;49.54
3254;BME280;1639;42.804;23.342;2023-09-19T09:34:52;71859.75;;;-148.52;49.66
3254;BME280;1639;42.804;23.342;2023-09-19T09:37:18;71839.06;;;-148.52;48.35
3254;BME280;1639;42.804;23.342;2023-09-19T09:40:00;71843.19;;;-148.52;48.87
3254;BME280;1639;42.804;23.342;2023-09-19T09:42:45;71847.34;;;-148.52;48.87
3254;BME280;1639;42.804;23.342;2023-09-19T09:45:22;71847.34;;;-148.52;49.38
3254;BME280;1639;42.804;23.342;2023-09-19T09:48:00;71865.94;;;-148.52;49.26
3254;BME280;1639;42.804;23.342;2023-09-19T09:50:35;71876.28;;;-148.52;49.35
3254;BME280;1639;42.804;23.342;2023-09-19T09:53:26;71861.81;;;-148.52;48.75
3254;BME280;1639;42.804;23.342;2023-09-19T09:56:07;71826.66;;;-148.52;49.78
3254;BME280;1639;42.804;23.342;2023-09-19T09:58:37;71810.13;;;-148.52;48.48
3254;BME280;1639;42.804;23.342;2023-09-19T10:01:04;71810.13;;;-148.52;48.00
3254;BME280;1639;42.804;23.342;2023-09-19T10:03:40;71814.25;;;-148.52;48.19
3254;BME280;1639;42.804;23.342;2023-09-19T10:06:13;71816.31;;;-148.52;48.37
3254;BME280;1639;42.804;23.342;2023-09-19T10:09:09;71793.59;;;-148.52;48.44
3254;BME280;1639;42.804;23.342;2023-09-19T10:15:17;71772.91;;;-148.52;48.97
3254;BME280;1639;42.804;23.342;2023-09-19T10:17:46;71752.22;;;-148.52;48.16
3254;BME280;1639;42.804;23.342;2023-09-19T10:20:16;71743.97;;;-148.52;48.33
3254;BME280;1639;42.804;23.342;2023-09-19T10:23:09;71741.88;;;-148.52;48.15
3254;BME280;1639;42.804;23.342;2023-09-19T10:25:43;71737.75;;;-148.52;48.42
3254;BME280;1639;42.804;23.342;2023-09-19T10:28:12;71743.97;;;-148.52;47.64
3254;BME280;1639;42.804;23.342;2023-09-19T10:30:41;71739.81;;;-148.52;48.35
3254;BME280;1639;42.804;23.342;2023-09-19T10:33:14;71710.88;;;-148.52;47.61
3254;BME280;1639;42.804;23.342;2023-09-19T10:35:50;71694.34;;;-148.52;48.17
3254;BME280;1639;42.804;23.342;2023-09-19T10:38:26;71669.53;;;-148.52;47.51
3254;BME280;1639;42.804;23.342;2023-09-19T10:40:53;71661.25;;;-148.52;47.99
3254;BME280;1639;42.804;23.342;2023-09-19T10:43:21;71653.00;;;-148.52;47.92
3254;BME280;1639;42.804;23.342;2023-09-19T10:45:50;71638.50;;;-148.52;48.57
3254;BME280;1639;42.804;23.342;2023-09-19T10:48:18;71640.59;;;-148.52;46.95
3254;BME280;1639;42.804;23.342;2023-09-19T10:51:05;71619.91;;;-148.52;46.79
3254;BME280;1639;42.804;23.342;2023-09-19T10:54:08;71624.03;;;-148.52;46.54
3254;BME280;1639;42.804;23.342;2023-09-19T10:56:42;71624.03;;;-148.52;45.82
3254;BME280;1639;42.804;23.342;2023-09-19T10:59:11;71630.25;;;-148.52;46.68
3254;BME280;1639;42.804;23.342;2023-09-19T11:01:52;71636.44;;;-148.52;46.38
3254;BME280;1639;42.804;23.342;2023-09-19T11:04:36;71609.56;;;-148.52;46.25
3254;BME280;1639;42.804;23.342;2023-09-19T11:07:09;71578.56;;;-148.52;45.79
3254;BME280;1639;42.804;23.342;2023-09-19T11:09:55;71568.22;;;-148.52;45.66
3254;BME280;1639;42.804;23.342;2023-09-19T11:14:55;71539.28;;;-148.52;46.10
3254;BME280;1639;42.804;23.342;2023-09-19T11:30:42;71471.06;;;-148.52;43.77
3254;BME280;1639;42.804;23.342;2023-09-19T11:36:10;71448.31;;;-148.52;44.27
3254;BME280;1639;42.804;23.342;2023-09-19T11:43:51;71421.44;;;-148.52;40.55
3254;BME280;1639;42.804;23.342;2023-09-19T11:46:17;71417.28;;;-148.52;41.99
3254;BME280;1639;42.804;23.342;2023-09-19T11:48:47;71402.81;;;-148.52;43.12
3254;BME280;1639;42.804;23.342;2023-09-19T11:51:15;71392.50;;;-148.52;42.01
3254;BME280;1639;42.804;23.342;2023-09-19T11:53:45;71388.34;;;-148.52;41.95
3254;BME280;1639;42.804;23.342;2023-09-19T11:56:18;71373.88;;;-148.52;41.55
3254;BME280;1639;42.804;23.342;2023-09-19T11:58:46;71402.81;;;-148.52;41.63
3254;BME280;1639;42.804;23.342;2023-09-19T12:01:15;71427.63;;;-148.52;43.06
3254;BME280;1639;42.804;23.342;2023-09-19T12:03:47;71427.63;;;-148.52;43.19
3254;BME280;1639;42.804;23.342;2023-09-19T12:06:18;71392.50;;;-148.52;43.67
3254;BME280;1639;42.804;23.342;2023-09-19T12:08:44;71392.50;;;-148.52;42.50
3254;BME280;1639;42.804;23.342;2023-09-19T12:11:16;71388.34;;;-148.52;42.64
3254;BME280;1639;42.804;23.342;2023-09-19T12:13:45;71396.63;;;-148.52;43.03
3254;BME280;1639;42.804;23.342;2023-09-19T12:16:16;71398.69;;;-148.52;42.76
3254;BME280;1639;42.804;23.342;2023-09-19T12:18:43;71375.94;;;-148.52;42.95
3254;BME280;1639;42.804;23.342;2023-09-19T12:24:13;71373.88;;;-148.52;43.17
3254;BME280;1639;42.804;23.342;2023-09-19T12:26:45;71365.63;;;-148.52;42.90
3254;BME280;1639;42.804;23.342;2023-09-19T12:29:21;71386.28;;;-148.52;43.64
3254;BME280;1639;42.804;23.342;2023-09-19T12:31:50;71365.63;;;-148.52;42.68
3254;BME280;1639;42.804;23.342;2023-09-19T12:34:20;71361.47;;;-148.52;42.44
3254;BME280;1639;42.804;23.342;2023-09-19T12:36:46;71355.28;;;-148.52;42.55
3254;BME280;1639;42.804;23.342;2023-09-19T12:39:22;71344.94;;;-148.52;42.83
3254;BME280;1639;42.804;23.342;2023-09-19T12:41:48;71336.66;;;-148.52;42.10
3254;BME280;1639;42.804;23.342;2023-09-19T12:44:16;71338.75;;;-148.52;42.46
3254;BME280;1639;42.804;23.342;2023-09-19T12:46:43;71316.00;;;-148.52;43.05
3254;BME280;1639;42.804;23.342;2023-09-19T12:49:17;71307.72;;;-148.52;42.55
3254;BME280;1639;42.804;23.342;2023-09-19T12:51:43;71320.13;;;-148.52;42.69
3254;BME280;1639;42.804;23.342;2023-09-19T12:54:11;71318.06;;;-148.52;42.93
3254;BME280;1639;42.804;23.342;2023-09-19T12:56:41;71301.53;;;-148.52;43.10
3254;BME280;1639;42.804;23.342;2023-09-19T12:59:12;71287.06;;;-148.52;42.35
3254;BME280;1639;42.804;23.342;2023-09-19T13:01:39;71270.50;;;-148.52;43.41
3254;BME280;1639;42.804;23.342;2023-09-19T13:04:17;71274.66;;;-148.52;42.39
3254;BME280;1639;42.804;23.342;2023-09-19T13:06:47;71276.72;;;-148.52;41.90
3254;BME280;1639;42.804;23.342;2023-09-19T13:09:17;71278.78;;;-148.52;42.01
3254;BME280;1639;42.804;23.342;2023-09-19T13:11:43;71268.44;;;-148.52;42.82
3254;BME280;1639;42.804;23.342;2023-09-19T13:14:23;71264.31;;;-148.52;42.38
3254;BME280;1639;42.804;23.342;2023-09-19T13:22:44;71239.50;;;-148.52;41.14
3254;BME280;1639;42.804;23.342;2023-09-19T13:25:20;71233.31;;;-148.52;41.82
3254;BME280;1639;42.804;23.342;2023-09-19T13:27:49;71229.16;;;-148.52;41.73
3254;BME280;1639;42.804;23.342;2023-09-19T13:30:16;71218.84;;;-148.52;42.01
3254;BME280;1639;42.804;23.342;2023-09-19T13:32:42;71251.91;;;-148.52;41.37
3254;BME280;1639;42.804;23.342;2023-09-19T13:35:09;71239.50;;;-148.52;42.31
3254;BME280;1639;42.804;23.342;2023-09-19T13:37:35;71233.31;;;-148.52;41.93
3254;BME280;1639;42.804;23.342;2023-09-19T13:40:07;71222.97;;;-148.52;41.56
3254;BME280;1639;42.804;23.342;2023-09-19T13:42:33;71231.22;;;-148.52;41.25
3254;BME280;1639;42.804;23.342;2023-09-19T13:44:58;71249.84;;;-148.52;41.29
3254;BME280;1639;42.804;23.342;2023-09-19T13:47:24;71239.50;;;-148.52;41.10
3254;BME280;1639;42.804;23.342;2023-09-19T13:49:51;71235.38;;;-148.52;41.55
3254;BME280;1639;42.804;23.342;2023-09-19T13:52:21;71241.56;;;-148.52;42.02
3254;BME280;1639;42.804;23.342;2023-09-19T13:54:49;71235.38;;;-148.52;40.68
3254;BME280;1639;42.804;23.342;2023-09-19T13:57:15;71239.50;;;-148.52;41.44
3254;BME280;1639;42.804;23.342;2023-09-19T13:59:41;71218.84;;;-148.52;41.95
3254;BME280;1639;42.804;23.342;2023-09-19T14:02:07;71200.22;;;-148.52;41.26
3254;BME280;1639;42.804;23.342;2023-09-19T14:04:32;71198.16;;;-148.52;40.50
3254;BME280;1639;42.804;23.342;2023-09-19T14:07:00;71198.16;;;-148.52;41.30